Time;durP1;ratioP1;P1;durP2;ratioP2;P2;SDS_P1;SDS_P2;PMS_P1;PMS_P2;Temp;Humidity;BMP_temperature;BMP_pressure;BME280_temperature;BME280_humidity;BME280_pressure;Samples;Min_cycle;Max_cycle;Signal;HPM_P1;HPM_P2
2022/02/07 00:01:04;;;;;;;0.57;0.40;;;21.20;46.70;;;;;;4998463;28;20049;-72
2022/02/07 00:03:54;;;;;;;1.45;0.50;;;21.20;46.70;;;;;;4999162;28;20029;-72
2022/02/07 00:06:20;;;;;;;0.85;0.60;;;21.10;46.70;;;;;;4999723;28;20447;-71
2022/02/07 00:08:46;;;;;;;0.52;0.47;;;21.10;46.70;;;;;;5000775;28;20100;-72
2022/02/07 00:11:15;;;;;;;0.40;0.40;;;21.20;46.80;;;;;;4999474;28;20026;-72
2022/02/07 00:13:42;;;;;;;0.82;0.60;;;21.10;46.70;;;;;;5011594;28;20140;-72
2022/02/07 00:16:07;;;;;;;0.90;0.50;;;21.10;46.80;;;;;;4998535;28;20411;-72
2022/02/07 00:18:35;;;;;;;1.10;0.55;;;21.10;46.80;;;;;;5013123;28;20103;-72
2022/02/07 00:21:01;;;;;;;0.68;0.47;;;21.10;46.80;;;;;;5013677;28;20030;-69
2022/02/07 00:23:27;;;;;;;0.60;0.30;;;21.10;46.80;;;;;;4997551;28;20344;-69
2022/02/07 00:25:53;;;;;;;1.13;0.40;;;21.00;46.80;;;;;;4998741;28;20371;-73
2022/02/07 00:28:19;;;;;;;0.28;0.28;;;21.00;47.30;;;;;;4998316;28;20026;-72
2022/02/07 00:30:45;;;;;;;0.60;0.40;;;21.00;46.80;;;;;;4997182;28;20049;-72
2022/02/07 00:33:10;;;;;;;0.47;0.40;;;21.00;46.90;;;;;;4998243;28;20026;-72
2022/02/07 00:35:37;;;;;;;0.50;0.40;;;21.00;46.90;;;;;;5001395;28;20805;-69
2022/02/07 00:38:08;;;;;;;0.57;0.40;;;21.00;46.90;;;;;;4998774;28;20034;-70
2022/02/07 00:46:04;;;;;;;0.50;0.35;;;20.90;46.90;;;;;;4997456;28;20101;-73
2022/02/07 00:48:30;;;;;;;0.52;0.50;;;21.00;47.00;;;;;;5013517;28;20053;-72
2022/02/07 00:50:56;;;;;;;0.40;0.35;;;20.90;47.00;;;;;;4999833;28;20038;-72
2022/02/07 00:53:23;;;;;;;1.30;0.40;;;20.90;46.90;;;;;;5000922;28;20018;-72
2022/02/07 00:55:49;;;;;;;0.50;0.50;;;20.90;47.00;;;;;;4998733;28;20030;-69
2022/02/07 00:58:15;;;;;;;0.40;0.40;;;20.90;47.00;;;;;;5012602;28;20123;-72
2022/02/07 01:00:41;;;;;;;1.15;0.60;;;20.90;47.00;;;;;;4997348;28;20034;-70
2022/02/07 01:03:07;;;;;;;0.60;0.40;;;20.90;47.60;;;;;;4997520;28;20033;-72
2022/02/07 01:05:33;;;;;;;0.43;0.40;;;20.80;47.00;;;;;;4999829;28;20494;-72
2022/02/07 01:08:00;;;;;;;0.30;0.30;;;20.80;47.00;;;;;;4998320;28;20365;-72
2022/02/07 01:10:34;;;;;;;3.13;0.85;;;20.80;47.10;;;;;;4997794;28;20018;-72
2022/02/07 01:13:10;;;;;;;0.50;0.40;;;20.80;47.10;;;;;;5013301;28;20022;-72
2022/02/07 01:57:55;;;;;;;0.57;0.40;;;20.60;47.20;;;;;;4996984;28;20038;-70
2022/02/07 02:00:22;;;;;;;0.28;0.22;;;20.60;47.20;;;;;;4996438;28;20189;-73
2022/02/07 02:02:47;;;;;;;0.65;0.38;;;20.60;47.20;;;;;;4997465;28;20019;-69
2022/02/07 02:05:15;;;;;;;0.50;0.30;;;20.60;47.20;;;;;;4995375;28;20205;-68
2022/02/07 02:07:42;;;;;;;0.43;0.43;;;20.60;47.30;;;;;;4998694;28;20026;-71
2022/02/07 02:10:09;;;;;;;0.38;0.30;;;20.50;47.20;;;;;;4998004;28;20376;-71
2022/02/07 02:12:44;;;;;;;0.38;0.32;;;20.50;47.20;;;;;;4997515;28;20026;-72
2022/02/07 02:16:16;;;;;;;0.45;0.40;;;20.50;47.30;;;;;;5008009;28;20033;-70
2022/02/07 02:32:40;;;;;;;0.97;0.40;;;20.50;47.30;;;;;;4996110;28;20120;-72
2022/02/07 02:37:10;;;;;;;0.38;0.38;;;20.40;47.30;;;;;;4997264;28;20065;-72
2022/02/07 02:47:33;;;;;;;0.30;0.30;;;20.40;47.40;;;;;;4995557;28;20109;-71
2022/02/07 02:50:15;;;;;;;0.65;0.35;;;20.40;47.90;;;;;;4996452;28;20027;-70
2022/02/07 02:52:40;;;;;;;0.50;0.30;;;20.30;47.30;;;;;;4997497;28;20046;-72
2022/02/07 02:55:06;;;;;;;0.93;0.30;;;20.40;47.40;;;;;;4995806;28;20656;-72
2022/02/07 02:57:32;;;;;;;0.40;0.38;;;20.30;47.30;;;;;;4996892;28;20034;-71
2022/02/07 02:59:58;;;;;;;0.32;0.30;;;20.30;47.30;;;;;;4995222;28;20089;-68
2022/02/07 03:02:23;;;;;;;0.45;0.32;;;20.30;47.40;;;;;;4995263;28;20238;-72
2022/02/07 03:04:49;;;;;;;0.30;0.30;;;20.30;47.30;;;;;;4996144;28;20061;-68
2022/02/07 03:07:15;;;;;;;0.40;0.40;;;20.30;47.40;;;;;;4996850;28;20030;-69
2022/02/07 03:09:48;;;;;;;0.28;0.28;;;20.40;47.40;;;;;;4996196;28;20037;-69
2022/02/07 03:12:14;;;;;;;0.40;0.40;;;20.30;47.40;;;;;;4995530;28;20113;-69
2022/02/07 03:14:44;;;;;;;0.50;0.50;;;20.30;47.40;;;;;;4993435;28;20580;-71
2022/02/07 03:17:10;;;;;;;0.30;0.30;;;20.30;47.90;;;;;;4998486;28;20470;-71
2022/02/07 03:19:35;;;;;;;0.30;0.30;;;20.30;47.40;;;;;;4994944;28;20038;-72
2022/02/07 03:22:01;;;;;;;0.88;0.50;;;20.30;47.40;;;;;;4996113;28;20026;-69
2022/02/07 03:24:27;;;;;;;0.30;0.30;;;20.30;47.40;;;;;;5011731;28;20037;-71
2022/02/07 03:26:52;;;;;;;0.30;0.30;;;20.30;47.40;;;;;;4994853;28;20054;-69
2022/02/07 03:29:18;;;;;;;0.38;0.38;;;20.30;47.40;;;;;;5009941;28;20041;-69
2022/02/07 03:31:44;;;;;;;0.57;0.47;;;20.20;47.40;;;;;;4992653;28;20155;-68
2022/02/07 03:34:09;;;;;;;0.20;0.20;;;20.30;47.50;;;;;;4995905;28;20101;-72
2022/02/07 03:36:35;;;;;;;0.40;0.40;;;20.30;47.50;;;;;;4996981;28;20133;-72
2022/02/07 03:39:02;;;;;;;0.30;0.30;;;20.30;47.50;;;;;;4996275;28;20025;-71
2022/02/07 03:41:28;;;;;;;0.30;0.30;;;20.20;47.50;;;;;;5011789;28;20022;-71
2022/02/07 03:43:53;;;;;;;0.30;0.30;;;20.20;47.50;;;;;;5008890;28;20026;-68
2022/02/07 03:46:19;;;;;;;0.50;0.30;;;20.20;47.50;;;;;;4995548;28;20114;-71
2022/02/07 03:48:45;;;;;;;0.40;0.40;;;20.20;47.50;;;;;;4995759;28;20033;-68
2022/02/07 03:51:11;;;;;;;0.30;0.30;;;20.20;47.50;;;;;;4996670;28;20040;-69
2022/02/07 03:53:36;;;;;;;0.32;0.30;;;20.20;47.50;;;;;;4996975;28;20088;-72
2022/02/07 03:56:03;;;;;;;0.35;0.35;;;20.20;47.50;;;;;;4995460;28;20046;-71
2022/02/07 03:58:28;;;;;;;0.68;0.30;;;20.20;47.50;;;;;;5009897;28;20045;-72
2022/02/07 04:00:55;;;;;;;0.20;0.20;;;20.20;47.50;;;;;;4994059;28;20038;-72
2022/02/07 04:03:27;;;;;;;0.40;0.40;;;20.20;47.50;;;;;;4994760;28;20483;-72
2022/02/07 04:05:59;;;;;;;1.00;0.30;;;20.20;47.50;;;;;;4996645;28;20531;-72
2022/02/07 04:08:30;;;;;;;0.22;0.22;;;20.10;47.50;;;;;;4997841;28;20051;-71
2022/02/07 04:13:29;;;;;;;0.40;0.40;;;20.20;47.50;;;;;;4998240;28;20033;-72
2022/02/07 04:15:55;;;;;;;0.30;0.30;;;20.10;47.50;;;;;;4997459;28;20479;-69
2022/02/07 04:18:23;;;;;;;0.40;0.40;;;20.10;47.60;;;;;;5015737;28;20034;-72
2022/02/07 04:20:49;;;;;;;0.30;0.30;;;20.10;47.50;;;;;;4998656;28;20030;-72
2022/02/07 04:23:14;;;;;;;0.55;0.40;;;20.10;47.50;;;;;;4997928;28;20034;-72
2022/02/07 04:25:40;;;;;;;0.30;0.30;;;20.10;47.60;;;;;;5014645;28;20478;-68
2022/02/07 04:28:06;;;;;;;0.20;0.20;;;20.10;47.60;;;;;;4997848;28;20548;-72
2022/02/07 04:30:31;;;;;;;0.73;0.30;;;20.10;47.60;;;;;;4996007;28;20154;-71
2022/02/07 04:32:57;;;;;;;0.40;0.28;;;20.10;47.60;;;;;;4998460;28;20026;-72
2022/02/07 04:35:23;;;;;;;0.40;0.40;;;20.10;47.60;;;;;;4999881;28;20049;-68
2022/02/07 04:37:48;;;;;;;0.30;0.30;;;20.10;47.60;;;;;;5000693;28;20018;-72
2022/02/07 04:40:14;;;;;;;0.20;0.20;;;20.10;47.60;;;;;;4998431;28;20082;-71
2022/02/07 04:42:39;;;;;;;0.22;0.22;;;20.10;47.60;;;;;;4998056;28;20045;-72
2022/02/07 04:45:27;;;;;;;0.30;0.30;;;20.10;47.60;;;;;;4997200;28;20026;-72
2022/02/07 04:56:14;;;;;;;0.35;0.30;;;20.10;47.70;;;;;;4999261;28;20045;-69
2022/02/07 05:01:21;;;;;;;0.38;0.30;;;20.00;47.70;;;;;;4994378;28;20038;-72
2022/02/07 05:03:52;;;;;;;0.25;0.25;;;20.00;47.70;;;;;;4998310;28;20509;-68
2022/02/07 05:14:33;;;;;;;0.20;0.20;;;20.00;47.70;;;;;;4996232;28;20555;-68
2022/02/07 05:16:59;;;;;;;0.32;0.32;;;20.00;47.70;;;;;;4997882;28;20129;-72
2022/02/07 05:19:25;;;;;;;0.30;0.30;;;20.00;47.70;;;;;;4998451;28;20034;-71
2022/02/07 05:21:51;;;;;;;0.20;0.20;;;20.00;47.70;;;;;;5001546;28;20037;-72
2022/02/07 05:24:16;;;;;;;0.52;0.38;;;20.00;47.70;;;;;;4999814;28;20031;-69
2022/02/07 05:26:43;;;;;;;0.20;0.20;;;20.00;47.70;;;;;;4999815;28;20515;-72
2022/02/07 05:29:08;;;;;;;0.30;0.30;;;19.90;47.60;;;;;;4996711;28;20027;-71
2022/02/07 05:31:34;;;;;;;0.30;0.30;;;19.90;47.70;;;;;;4997149;28;20196;-72
2022/02/07 05:34:01;;;;;;;0.30;0.30;;;20.00;47.80;;;;;;4997596;28;20041;-68
2022/02/07 05:36:28;;;;;;;0.38;0.32;;;19.90;47.70;;;;;;4998656;28;20041;-72
2022/02/07 05:38:58;;;;;;;0.20;0.20;;;19.90;47.70;;;;;;4999352;28;20496;-72
2022/02/07 05:41:24;;;;;;;0.30;0.30;;;19.90;47.70;;;;;;4998369;28;20050;-72
2022/02/07 05:43:51;;;;;;;0.30;0.30;;;19.90;47.80;;;;;;4996134;28;20514;-72
2022/02/07 05:46:18;;;;;;;0.30;0.30;;;19.90;47.80;;;;;;4997846;28;20026;-72
2022/02/07 05:48:44;;;;;;;0.32;0.30;;;19.90;47.80;;;;;;4999133;28;20535;-72
2022/02/07 05:51:10;;;;;;;0.40;0.40;;;19.90;47.80;;;;;;4998587;28;20247;-72
2022/02/07 05:53:36;;;;;;;0.75;0.40;;;19.90;47.80;;;;;;4996165;28;20116;-72
2022/02/07 05:56:02;;;;;;;0.20;0.20;;;19.90;47.80;;;;;;4996321;28;20049;-73
2022/02/07 05:58:28;;;;;;;0.30;0.30;;;19.90;47.90;;;;;;4996888;28;20485;-72
2022/02/07 06:00:54;;;;;;;0.50;0.35;;;19.90;47.90;;;;;;5011922;28;20045;-74
2022/02/07 06:03:20;;;;;;;0.32;0.30;;;19.90;47.90;;;;;;5012983;28;20976;-72
2022/02/07 06:05:45;;;;;;;0.50;0.30;;;19.90;47.90;;;;;;4995942;28;20145;-71
2022/02/07 06:08:11;;;;;;;0.28;0.25;;;19.90;48.00;;;;;;4995809;28;20045;-72
2022/02/07 06:10:37;;;;;;;0.30;0.30;;;19.90;48.00;;;;;;4996953;28;20581;-72
2022/02/07 06:13:02;;;;;;;0.65;0.45;;;19.90;48.00;;;;;;4995210;28;20574;-72
2022/02/07 06:15:28;;;;;;;0.60;0.40;;;19.90;48.10;;;;;;4995761;28;20022;-69
2022/02/07 06:17:57;;;;;;;0.60;0.45;;;19.80;48.70;;;;;;4995324;28;20584;-72
2022/02/07 06:20:24;;;;;;;0.93;0.50;;;19.80;48.20;;;;;;4998727;28;20014;-72
2022/02/07 06:22:50;;;;;;;0.57;0.40;;;19.90;48.40;;;;;;4996804;28;20030;-72
2022/02/07 06:25:16;;;;;;;2.22;0.75;;;19.90;48.40;;;;;;4994790;28;20034;-65
2022/02/07 06:27:42;;;;;;;0.90;0.52;;;19.90;48.60;;;;;;4994198;28;20402;-70
2022/02/07 06:30:10;;;;;;;1.77;0.65;;;19.90;49.30;;;;;;4991974;28;20030;-69
2022/02/07 06:32:37;;;;;;;2.50;0.70;;;20.20;49.30;;;;;;4996160;28;20103;-66
2022/02/07 06:35:03;;;;;;;3.47;0.80;;;20.40;49.00;;;;;;4996263;28;20037;-66
2022/02/07 06:37:29;;;;;;;1.30;0.70;;;20.60;48.70;;;;;;4992685;28;20391;-69
2022/02/07 06:39:54;;;;;;;1.38;0.80;;;20.80;48.70;;;;;;5011003;28;20034;-67
2022/02/07 06:42:21;;;;;;;1.17;0.70;;;21.00;48.70;;;;;;4996693;28;20432;-70
2022/02/07 06:44:47;;;;;;;1.70;0.70;;;21.20;48.60;;;;;;4993601;28;20072;-70
2022/02/07 06:47:12;;;;;;;2.10;0.90;;;21.40;48.40;;;;;;4995432;28;20490;-67
2022/02/07 06:49:38;;;;;;;1.55;0.70;;;21.50;48.10;;;;;;4996310;28;20118;-69
2022/02/07 06:52:04;;;;;;;1.35;0.80;;;21.80;48.00;;;;;;5009922;28;20690;-69
2022/02/07 06:54:30;;;;;;;0.70;0.50;;;21.70;47.80;;;;;;4994921;28;20505;-69
2022/02/07 06:56:55;;;;;;;0.75;0.50;;;21.70;47.90;;;;;;4995815;28;20038;-69
2022/02/07 06:59:21;;;;;;;2.05;0.65;;;21.70;48.50;;;;;;4995122;28;20092;-70
2022/02/07 07:01:47;;;;;;;0.65;0.50;;;21.90;48.20;;;;;;4993308;28;20274;-68
2022/02/07 07:04:13;;;;;;;1.90;0.63;;;22.10;47.90;;;;;;4996424;28;20026;-67
2022/02/07 07:06:40;;;;;;;1.58;0.70;;;22.30;47.70;;;;;;4996427;28;20117;-67
2022/02/07 07:09:09;;;;;;;1.10;0.60;;;22.50;47.50;;;;;;4995246;28;20030;-67
2022/02/07 07:11:35;;;;;;;0.57;0.40;;;22.50;47.30;;;;;;4995872;28;20041;-70
2022/02/07 07:14:11;;;;;;;0.93;0.50;;;22.40;47.50;;;;;;4994172;28;20435;-70
2022/02/07 07:16:40;;;;;;;1.05;0.60;;;22.30;47.80;;;;;;4993830;28;20030;-69
2022/02/07 07:19:06;;;;;;;1.05;0.50;;;22.20;48.00;;;;;;4996392;28;20089;-70
2022/02/07 07:21:32;;;;;;;0.77;0.50;;;22.20;48.20;;;;;;4996683;28;20031;-68
2022/02/07 07:23:58;;;;;;;0.63;0.50;;;22.20;48.50;;;;;;4995225;28;20494;-71
2022/02/07 07:26:26;;;;;;;1.33;0.60;;;22.40;48.30;;;;;;4994407;28;20022;-71
2022/02/07 07:28:53;;;;;;;0.65;0.50;;;22.50;48.10;;;;;;4992521;28;21121;-68
2022/02/07 07:31:22;;;;;;;0.70;0.50;;;22.40;48.10;;;;;;4994740;28;20042;-71
2022/02/07 07:33:52;;;;;;;0.60;0.50;;;22.40;48.70;;;;;;4995550;28;20037;-70
2022/02/07 07:36:17;;;;;;;;;;;22.40;48.40;;;;;;4996815;28;20283;-68
2022/02/07 07:38:43;;;;;;;1.13;0.60;;;22.60;49.00;;;;;;4997585;28;19921;-71
2022/02/07 07:41:11;;;;;;;0.70;0.50;;;22.70;48.30;;;;;;4998567;28;20100;-70
2022/02/07 07:43:37;;;;;;;0.98;0.50;;;22.80;48.30;;;;;;4997855;28;20034;-67
2022/02/07 07:46:05;;;;;;;0.47;0.40;;;22.80;48.50;;;;;;4998547;28;20034;-71
2022/02/07 07:48:33;;;;;;;0.47;0.40;;;22.70;48.80;;;;;;5000124;28;20790;-70
2022/02/07 08:01:46;;;;;;;0.80;0.70;;;22.70;49.10;;;;;;4998240;28;20045;-71
2022/02/07 08:04:14;;;;;;;0.40;0.40;;;22.70;49.10;;;;;;5014838;28;20037;-70
2022/02/07 08:06:47;;;;;;;0.50;0.40;;;22.70;49.60;;;;;;5000931;28;20033;-70
2022/02/07 08:12:00;;;;;;;1.00;0.60;;;22.70;45.90;;;;;;4999288;28;20072;-70
2022/02/07 08:14:28;;;;;;;1.20;0.60;;;22.70;46.00;;;;;;5000172;28;20054;-70
2022/02/07 08:16:54;;;;;;;0.65;0.43;;;22.60;46.30;;;;;;5015476;28;20038;-69
2022/02/07 08:19:21;;;;;;;0.75;0.50;;;22.70;46.60;;;;;;5016609;28;20465;-68
2022/02/07 08:21:47;;;;;;;1.20;0.60;;;22.70;46.70;;;;;;5005770;28;20137;-69
2022/02/07 08:24:13;;;;;;;1.25;0.50;;;22.70;46.80;;;;;;5007406;28;20118;-70
2022/02/07 08:26:40;;;;;;;0.80;0.60;;;22.70;47.10;;;;;;5000480;28;20085;-69
2022/02/07 08:29:06;;;;;;;0.60;0.40;;;22.70;47.30;;;;;;5013846;28;20149;-69
2022/02/07 08:31:32;;;;;;;0.52;0.43;;;22.80;47.60;;;;;;4996997;28;20045;-68
2022/02/07 08:33:58;;;;;;;0.82;0.50;;;22.80;47.70;;;;;;5000791;28;20042;-66
2022/02/07 08:36:24;;;;;;;0.70;0.60;;;22.80;47.70;;;;;;5000186;28;20033;-70
2022/02/07 08:38:49;;;;;;;1.50;0.50;;;22.80;47.70;;;;;;4999018;28;20068;-68
2022/02/07 08:41:15;;;;;;;1.10;0.60;;;22.80;48.00;;;;;;4998912;28;20032;-69
2022/02/07 08:43:41;;;;;;;0.65;0.40;;;22.80;47.90;;;;;;4997480;28;20069;-70
2022/02/07 08:46:08;;;;;;;0.52;0.40;;;22.80;48.10;;;;;;4998356;28;20038;-71
2022/02/07 08:48:33;;;;;;;1.38;0.50;;;22.90;48.20;;;;;;4997387;28;20410;-65
2022/02/07 08:50:59;;;;;;;0.70;0.50;;;22.90;48.20;;;;;;4999432;28;20037;-67
2022/02/07 08:53:31;;;;;;;1.85;0.60;;;22.90;48.40;;;;;;4997632;28;20030;-68
2022/02/07 08:55:57;;;;;;;0.90;0.60;;;22.90;48.30;;;;;;4999772;28;20208;-69
2022/02/07 08:58:25;;;;;;;0.40;0.40;;;22.90;48.30;;;;;;4997994;28;20145;-67
2022/02/07 09:10:44;;;;;;;63.25;25.63;;;23.00;49.00;;;;;;4999636;28;20022;-70
2022/02/07 09:13:10;;;;;;;57.42;24.70;;;23.00;49.30;;;;;;4997803;28;20067;-70
2022/02/07 09:18:05;;;;;;;26.60;11.55;;;23.10;49.20;;;;;;5000387;28;20034;-66
2022/02/07 09:20:32;;;;;;;29.30;11.75;;;23.00;49.30;;;;;;4998795;28;20556;-69
2022/02/07 09:22:58;;;;;;;21.73;9.55;;;23.10;49.30;;;;;;4999555;28;20030;-68
2022/02/07 09:25:24;;;;;;;24.55;10.15;;;23.10;49.30;;;;;;4998595;28;20483;-69
2022/02/07 09:27:49;;;;;;;24.17;10.15;;;23.10;49.30;;;;;;5014287;28;20486;-69
2022/02/07 09:30:15;;;;;;;24.63;10.02;;;23.10;49.40;;;;;;4997189;28;20116;-69
2022/02/07 09:32:41;;;;;;;19.08;8.60;;;23.10;49.40;;;;;;4999800;28;20088;-67
2022/02/07 09:35:07;;;;;;;19.52;9.07;;;23.10;49.40;;;;;;5000278;28;20037;-70
2022/02/07 09:37:32;;;;;;;20.75;9.13;;;23.20;49.40;;;;;;5000164;28;20049;-70
2022/02/07 09:39:58;;;;;;;17.48;7.80;;;23.10;49.30;;;;;;4997724;28;20482;-68
2022/02/07 09:42:25;;;;;;;20.33;8.40;;;23.10;49.30;;;;;;4998762;28;20122;-71
2022/02/07 09:44:54;;;;;;;18.17;8.05;;;23.20;49.40;;;;;;4996717;28;20026;-71
2022/02/07 09:47:20;;;;;;;20.95;8.68;;;23.20;49.40;;;;;;4996963;28;20018;-71
2022/02/07 09:49:47;;;;;;;19.70;8.40;;;23.20;49.40;;;;;;4999307;28;20039;-70
2022/02/07 09:52:13;;;;;;;19.67;8.25;;;23.20;49.40;;;;;;4998732;28;20085;-68
2022/02/07 09:54:39;;;;;;;17.08;7.43;;;23.20;49.50;;;;;;4996284;28;20078;-69
2022/02/07 09:57:06;;;;;;;17.13;7.60;;;23.20;49.60;;;;;;4998110;28;20038;-69
2022/02/07 09:59:32;;;;;;;16.83;7.50;;;23.20;49.50;;;;;;4997587;28;20057;-70
2022/02/07 10:02:03;;;;;;;16.85;7.32;;;23.20;49.40;;;;;;4995780;28;20038;-71
2022/02/07 10:04:40;;;;;;;15.40;7.45;;;23.30;49.60;;;;;;5014293;28;20379;-69
2022/02/07 10:10:33;;;;;;;17.33;7.50;;;23.30;49.50;;;;;;4998828;28;20466;-67
2022/02/07 10:12:36;;;;;;;15.88;7.20;;;23.30;49.50;;;;;;5004739;28;20193;-66
2022/02/07 10:15:18;;;;;;;14.88;7.53;;;23.30;49.60;;;;;;4996076;28;20034;-71
2022/02/07 10:17:55;;;;;;;15.48;7.55;;;23.30;49.70;;;;;;5011623;28;20038;-71
2022/02/07 10:34:32;;;;;;;13.27;7.60;;;23.30;49.80;;;;;;4997772;28;20054;-69
2022/02/07 10:35:05;;;;;;;13.02;7.00;;;23.40;50.30;;;;;;4995743;28;20151;-67
2022/02/07 10:48:29;;;;;;;9.88;6.13;;;23.50;50.10;;;;;;4998548;28;20038;-66
2022/02/07 10:51:15;;;;;;;9.32;6.13;;;23.50;50.30;;;;;;5013501;28;20033;-68
2022/02/07 10:53:53;;;;;;;9.95;6.05;;;23.50;50.30;;;;;;4996468;28;20038;-70
2022/02/07 10:56:36;;;;;;;9.87;5.80;;;23.50;50.30;;;;;;4997376;28;20084;-71
2022/02/07 10:59:06;;;;;;;10.07;5.53;;;23.50;50.30;;;;;;4994432;28;20046;-70
2022/02/07 11:04:15;;;;;;;9.02;5.22;;;23.60;50.50;;;;;;4997925;28;20042;-70
2022/02/07 11:06:45;;;;;;;9.65;5.35;;;23.60;50.50;;;;;;4997970;28;20061;-70
2022/02/07 11:27:50;;;;;;;8.05;5.03;;;23.70;50.40;;;;;;5003089;28;20049;-67
2022/02/07 11:30:17;;;;;;;8.55;5.50;;;23.70;50.30;;;;;;4998950;28;20091;-70
2022/02/07 11:32:44;;;;;;;7.40;5.00;;;23.70;50.30;;;;;;4999244;28;20033;-66
2022/02/07 11:35:14;;;;;;;7.93;5.05;;;23.70;50.20;;;;;;5016622;28;20088;-69
2022/02/07 11:37:40;;;;;;;6.45;4.50;;;23.70;50.10;;;;;;5001890;28;20513;-68
2022/02/07 11:40:29;;;;;;;8.10;4.53;;;23.70;50.10;;;;;;5001360;28;20026;-70
2022/02/07 11:43:15;;;;;;;6.85;4.20;;;23.70;50.20;;;;;;5014214;28;20033;-68
2022/02/07 11:46:05;;;;;;;6.35;4.22;;;23.70;50.10;;;;;;4997389;28;20068;-71
2022/02/07 11:48:40;;;;;;;6.90;3.97;;;23.80;50.10;;;;;;4999148;28;20422;-70
2022/02/07 11:51:14;;;;;;;6.72;4.43;;;23.80;50.10;;;;;;5016157;28;20026;-68
2022/02/07 11:53:45;;;;;;;6.65;4.45;;;23.80;50.10;;;;;;5001341;28;20041;-71
2022/02/07 11:56:22;;;;;;;7.18;4.53;;;23.80;50.10;;;;;;4999582;28;20172;-70
2022/02/07 11:59:13;;;;;;;7.43;4.35;;;23.80;50.10;;;;;;4998607;28;20048;-71
2022/02/07 12:01:57;;;;;;;4.60;2.55;;;23.80;47.30;;;;;;4994247;28;20495;-71
2022/02/07 12:04:32;;;;;;;2.80;1.50;;;23.70;43.80;;;;;;4997793;28;20026;-68
2022/02/07 12:07:25;;;;;;;1.55;0.80;;;23.70;45.00;;;;;;4997278;28;20109;-70
2022/02/07 12:10:02;;;;;;;2.08;0.90;;;23.60;45.50;;;;;;4998428;28;20394;-70
2022/02/07 12:12:50;;;;;;;1.23;0.82;;;23.70;46.00;;;;;;5011565;28;20030;-69
2022/02/07 12:15:27;;;;;;;1.45;0.95;;;23.70;46.30;;;;;;4994698;28;20117;-70
2022/02/07 12:17:56;;;;;;;1.20;0.80;;;23.70;46.70;;;;;;4997673;28;20034;-70
2022/02/07 12:20:24;;;;;;;1.60;0.93;;;23.70;46.90;;;;;;4997771;28;20514;-70
2022/02/07 12:23:04;;;;;;;1.23;0.80;;;23.70;47.10;;;;;;4996291;28;20112;-70
2022/02/07 12:25:29;;;;;;;1.52;0.80;;;23.70;47.30;;;;;;4996926;28;20026;-71
2022/02/07 12:28:00;;;;;;;2.15;1.08;;;23.80;47.70;;;;;;4997746;28;20801;-68
2022/02/07 12:30:43;;;;;;;1.30;0.80;;;23.80;47.90;;;;;;4996549;28;20633;-68
2022/02/07 12:33:09;;;;;;;1.10;0.80;;;23.80;48.10;;;;;;4992998;28;20097;-68
2022/02/07 12:35:35;;;;;;;1.10;0.80;;;23.90;48.30;;;;;;4996574;28;20026;-69
2022/02/07 12:38:00;;;;;;;1.65;0.90;;;23.80;48.30;;;;;;5000463;28;20072;-71
2022/02/07 12:40:26;;;;;;;1.52;0.85;;;23.90;48.50;;;;;;4998889;28;20088;-70
2022/02/07 12:42:54;;;;;;;1.33;0.80;;;23.90;48.70;;;;;;5000674;28;20031;-68
2022/02/07 12:45:25;;;;;;;1.60;0.82;;;23.90;48.80;;;;;;4999311;28;20036;-69
2022/02/07 12:47:58;;;;;;;1.38;0.75;;;23.90;48.90;;;;;;4999704;28;20462;-69
2022/02/07 12:50:27;;;;;;;2.15;1.10;;;23.90;47.20;;;;;;4999313;28;20036;-70
2022/02/07 12:52:56;;;;;;;2.08;1.30;;;23.80;44.10;;;;;;4999540;28;20037;-66
2022/02/07 12:55:22;;;;;;;;;;;23.70;43.00;;;;;;5000779;28;20030;-69
2022/02/07 12:57:48;;;;;;;2.05;1.20;;;23.60;42.90;;;;;;5002152;28;20468;-71
2022/02/07 13:00:16;;;;;;;2.55;1.20;;;23.60;42.80;;;;;;4999138;28;20049;-71
2022/02/07 13:02:45;;;;;;;2.85;1.30;;;23.50;42.90;;;;;;5002461;28;20479;-68
2022/02/07 13:05:12;;;;;;;2.20;1.10;;;23.40;43.10;;;;;;4999110;28;20022;-71
2022/02/07 13:07:44;;;;;;;1.98;1.10;;;23.40;43.30;;;;;;4995915;28;20026;-69
2022/02/07 13:10:17;;;;;;;1.70;0.98;;;23.40;43.10;;;;;;4996706;28;20058;-72
2022/02/07 13:15:22;;;;;;;2.30;1.30;;;23.30;43.30;;;;;;4996392;28;20141;-67
2022/02/07 13:17:52;;;;;;;1.77;1.05;;;23.30;43.40;;;;;;4997819;28;20026;-71
2022/02/07 13:20:19;;;;;;;2.67;1.17;;;23.20;43.40;;;;;;4996576;28;20037;-70
2022/02/07 13:22:45;;;;;;;2.25;1.10;;;23.20;43.50;;;;;;4996560;28;20050;-69
2022/02/07 13:25:13;;;;;;;2.92;1.30;;;23.20;43.50;;;;;;4997123;28;20026;-70
2022/02/07 13:27:39;;;;;;;1.90;1.10;;;23.20;43.60;;;;;;4997061;28;20838;-70
2022/02/07 13:30:10;;;;;;;2.63;1.20;;;23.10;43.50;;;;;;4996591;28;20029;-69
2022/02/07 13:32:38;;;;;;;2.22;1.02;;;23.10;43.70;;;;;;4995598;28;20057;-70
2022/02/07 13:35:13;;;;;;;2.50;1.30;;;23.10;43.70;;;;;;4996965;28;20528;-70
2022/02/07 13:37:40;;;;;;;2.33;1.05;;;23.10;43.70;;;;;;4997337;28;20047;-69
2022/02/07 13:40:12;;;;;;;2.00;1.05;;;23.10;43.90;;;;;;5011053;28;20034;-68
2022/02/07 13:42:39;;;;;;;2.42;1.23;;;23.10;44.00;;;;;;5011996;28;20425;-72
2022/02/07 13:45:08;;;;;;;2.35;1.20;;;23.10;44.00;;;;;;4993924;28;20033;-71
2022/02/07 13:47:40;;;;;;;2.58;1.30;;;23.00;43.90;;;;;;4996498;28;20040;-71
2022/02/07 13:50:11;;;;;;;2.40;1.10;;;23.00;44.10;;;;;;5013338;28;20065;-71
2022/02/07 13:52:41;;;;;;;3.15;1.10;;;23.00;44.20;;;;;;4995568;28;20046;-70
2022/02/07 13:55:25;;;;;;;2.20;1.05;;;23.00;44.20;;;;;;4995422;28;20022;-72
2022/02/07 13:57:52;;;;;;;3.25;1.08;;;23.00;44.20;;;;;;4995382;28;20038;-67
2022/02/07 14:00:20;;;;;;;2.30;1.17;;;22.90;44.30;;;;;;4993787;28;20116;-71
2022/02/07 14:02:46;;;;;;;2.70;1.27;;;23.00;44.60;;;;;;4994354;28;20164;-67
2022/02/07 14:05:13;;;;;;;3.08;1.27;;;23.00;44.50;;;;;;4995060;28;20328;-72
2022/02/07 14:07:53;;;;;;;1.30;0.80;;;22.90;44.40;;;;;;4995775;28;20073;-74
2022/02/07 14:10:20;;;;;;;;;;;22.90;44.60;;;;;;4996343;28;20092;-70
2022/02/07 14:12:46;;;;;;;1.83;1.08;;;22.90;44.60;;;;;;4994654;28;20354;-72
2022/02/07 14:15:12;;;;;;;2.42;1.08;;;22.90;44.60;;;;;;4991856;28;20036;-71
2022/02/07 14:17:43;;;;;;;3.78;1.35;;;22.90;44.60;;;;;;4995229;28;20129;-72
2022/02/07 14:20:11;;;;;;;2.45;1.08;;;22.90;44.60;;;;;;4997778;28;20037;-67
2022/02/07 14:22:37;;;;;;;1.90;1.00;;;22.90;44.70;;;;;;4996575;28;20080;-71
2022/02/07 14:25:04;;;;;;;2.30;1.00;;;22.90;44.80;;;;;;4998050;28;20050;-70
2022/02/07 14:27:31;;;;;;;2.88;1.27;;;22.90;44.80;;;;;;4997375;28;20026;-70
2022/02/07 14:29:57;;;;;;;1.98;0.95;;;22.90;44.70;;;;;;4994651;28;20044;-69
2022/02/07 14:32:23;;;;;;;3.65;1.13;;;22.80;44.60;;;;;;4996758;28;20041;-72
2022/02/07 14:34:49;;;;;;;2.97;1.35;;;22.80;44.70;;;;;;5002642;28;20029;-69
2022/02/07 14:37:14;;;;;;;1.90;1.10;;;22.80;44.60;;;;;;4999478;28;20049;-70
2022/02/07 14:39:40;;;;;;;2.30;1.10;;;22.80;44.80;;;;;;4999223;28;20347;-72
2022/02/07 14:42:07;;;;;;;2.08;1.10;;;22.80;44.80;;;;;;5000281;28;20026;-69
2022/02/07 14:44:43;;;;;;;2.03;1.08;;;22.80;44.80;;;;;;4996046;28;20105;-70
2022/02/07 14:47:14;;;;;;;2.88;1.17;;;22.80;44.80;;;;;;5001976;28;20033;-71
2022/02/07 14:49:40;;;;;;;1.90;1.13;;;22.80;44.80;;;;;;4997489;28;20032;-68
2022/02/07 14:52:06;;;;;;;2.33;1.20;;;22.80;44.80;;;;;;5000367;28;20461;-69
2022/02/07 14:54:34;;;;;;;2.20;1.10;;;22.80;44.80;;;;;;4998251;28;20029;-67
2022/02/07 14:57:00;;;;;;;2.95;1.23;;;22.80;44.80;;;;;;4996212;28;20577;-66
2022/02/07 14:59:26;;;;;;;2.03;0.98;;;22.80;44.80;;;;;;5001316;28;20030;-70
2022/02/07 15:01:54;;;;;;;2.40;1.08;;;22.80;44.80;;;;;;4997718;28;20050;-72
2022/02/07 15:04:20;;;;;;;2.10;1.05;;;22.80;44.90;;;;;;4995819;28;20068;-73
2022/02/07 15:06:47;;;;;;;2.90;1.25;;;22.80;45.40;;;;;;5001307;28;20022;-71
2022/02/07 15:09:12;;;;;;;2.05;1.00;;;22.80;44.90;;;;;;5000591;28;20091;-70
2022/02/07 15:11:38;;;;;;;2.65;1.30;;;22.80;44.90;;;;;;4998809;28;20363;-67
2022/02/07 15:14:04;;;;;;;3.85;1.13;;;22.80;44.90;;;;;;4996623;28;20038;-70
2022/02/07 15:16:30;;;;;;;2.13;1.02;;;22.70;45.00;;;;;;4998527;28;20101;-70
2022/02/07 15:18:56;;;;;;;2.40;1.20;;;22.80;45.10;;;;;;4997505;28;20026;-70
2022/02/07 15:21:22;;;;;;;2.10;1.00;;;22.80;45.10;;;;;;4996538;28;20026;-71
2022/02/07 15:23:51;;;;;;;2.30;1.00;;;22.70;45.10;;;;;;5011691;28;20474;-71
2022/02/07 15:26:20;;;;;;;2.03;1.05;;;22.80;45.20;;;;;;5010390;28;20048;-68
2022/02/07 15:28:49;;;;;;;1.63;0.90;;;22.70;45.20;;;;;;4999326;28;20118;-71
2022/02/07 15:31:15;;;;;;;2.08;1.02;;;22.70;45.20;;;;;;5012467;28;20049;-70
2022/02/07 15:33:43;;;;;;;2.20;0.98;;;22.70;45.20;;;;;;4997079;28;20554;-72
2022/02/07 15:36:10;;;;;;;1.40;0.80;;;22.70;45.20;;;;;;5000131;28;20080;-71
2022/02/07 15:38:36;;;;;;;3.55;1.10;;;22.70;45.20;;;;;;5000151;28;20042;-73
2022/02/07 15:41:03;;;;;;;2.88;1.17;;;22.70;45.30;;;;;;4999703;28;20451;-70